PWSweather.com
Personal Weather Stations
Station Observations

OlomoucCZ

Lat: 49.5936202181, Lon: 17.2276005149

Elevation: 752

Station Type: Davis Vantage Pro 2 Activ

http://infopocasi-olomouc.cz

High Low Average
Temperature 36.2°F2.3°C 26.0°F-3.3°C 31.6°F-0.2°C
Dew Point 35.0°F1.7°C 24.5°F-4.2°C 30.6°F-0.8°C
Winds 13.8 mph 22.2 kmh 2.3 mph 3.7 kmh 8.0 mph SE12.9 kmh SE
Wind Gusts 19.6 mph31.5 kmh 2.3 mph3.7 kmh 11.0 mph17.7 kmh
Humidity 97% 93% 96%
Pressure 30.20 in1022.7 mb 29.51 in999.3 mb -
Precipitation 0.08 in2.0 mm - -
Hour Temp Dew Point Humidity Winds Wind Gusts Pressure Precip Precip Rate Daily Precip Total
12:00 AM 27.0°F-2.8°C 25.2°F-3.8°C 93% 6.9 mph SE11.1 kmh SE 10.4 mph16.7 kmh 30.20 in1022.7 mb - 0.00 in0.0 mm 0.00 in0.0 mm
12:30 AM 26.9°F-2.8°C 25.4°F-3.7°C 94% 5.8 mph E9.3 kmh E 10.4 mph16.7 kmh 30.18 in1022.0 mb - 0.00 in0.0 mm 0.00 in0.0 mm
01:00 AM 26.6°F-3.0°C 25.1°F-3.8°C 94% 8.1 mph SE13.0 kmh SE 9.2 mph14.8 kmh 30.16 in1021.3 mb - 0.00 in0.0 mm 0.00 in0.0 mm
01:30 AM 26.0°F-3.3°C 24.5°F-4.2°C 94% 4.6 mph SE7.4 kmh SE 10.4 mph16.7 kmh 30.15 in1021.0 mb - 0.00 in0.0 mm 0.00 in0.0 mm
02:00 AM 26.1°F-3.3°C 24.6°F-4.1°C 94% 6.9 mph ESE11.1 kmh ESE 10.4 mph16.7 kmh 30.13 in1020.3 mb - 0.00 in0.0 mm 0.00 in0.0 mm
02:30 AM 26.0°F-3.3°C 24.5°F-4.2°C 94% 8.1 mph ESE13.0 kmh ESE 11.5 mph18.5 kmh 30.12 in1020.0 mb - 0.00 in0.0 mm 0.00 in0.0 mm
03:00 AM 26.4°F-3.1°C 24.9°F-3.9°C 94% 8.1 mph SE13.0 kmh SE 11.5 mph18.5 kmh 30.10 in1019.3 mb - 0.00 in0.0 mm 0.00 in0.0 mm
03:30 AM 27.2°F-2.7°C 26.0°F-3.3°C 95% 9.2 mph SE14.8 kmh SE 10.4 mph16.7 kmh 30.07 in1018.3 mb - 0.00 in0.0 mm 0.00 in0.0 mm
04:00 AM 27.6°F-2.4°C 26.4°F-3.1°C 95% 8.1 mph ESE13.0 kmh ESE 12.7 mph20.4 kmh 30.05 in1017.6 mb - 0.00 in0.0 mm 0.00 in0.0 mm
04:30 AM 27.0°F-2.8°C 25.8°F-3.4°C 95% 10.4 mph ESE16.7 kmh ESE 11.5 mph18.5 kmh 30.03 in1016.9 mb - 0.00 in0.0 mm 0.00 in0.0 mm
05:00 AM 26.9°F-2.8°C 25.7°F-3.5°C 95% 10.4 mph ESE16.7 kmh ESE 13.8 mph22.2 kmh 30.00 in1015.9 mb - 0.00 in0.0 mm 0.00 in0.0 mm
05:30 AM 26.7°F-2.9°C 25.5°F-3.6°C 95% 9.2 mph E14.8 kmh E 13.8 mph22.2 kmh 29.98 in1015.2 mb - 0.00 in0.0 mm 0.00 in0.0 mm
06:00 AM 26.9°F-2.8°C 25.7°F-3.5°C 95% 10.4 mph SE16.7 kmh SE 13.8 mph22.2 kmh 29.95 in1014.2 mb - 0.00 in0.0 mm 0.00 in0.0 mm
06:30 AM 27.3°F-2.6°C 26.3°F-3.2°C 96% 9.2 mph SE14.8 kmh SE 11.5 mph18.5 kmh 29.92 in1013.2 mb - 0.00 in0.0 mm 0.00 in0.0 mm
07:00 AM 27.7°F-2.4°C 26.7°F-2.9°C 96% 8.1 mph ESE13.0 kmh ESE 11.5 mph18.5 kmh 29.90 in1012.5 mb - 0.01 in0.3 mm 0.01 in0.3 mm
07:30 AM 28.3°F-2.1°C 27.3°F-2.6°C 96% 10.4 mph SE16.7 kmh SE 12.7 mph20.4 kmh 29.88 in1011.9 mb - 0.02 in0.5 mm 0.02 in0.5 mm
08:00 AM 29.6°F-1.3°C 28.9°F-1.7°C 97% 10.4 mph ESE16.7 kmh ESE 10.4 mph16.7 kmh 29.86 in1011.2 mb - 0.01 in0.3 mm 0.02 in0.5 mm
08:30 AM 30.2°F-1.0°C 29.5°F-1.4°C 97% 9.2 mph SE14.8 kmh SE 11.5 mph18.5 kmh 29.84 in1010.5 mb - 0.02 in0.5 mm 0.03 in0.8 mm
09:00 AM 30.4°F-0.9°C 29.4°F-1.4°C 96% 9.2 mph ESE14.8 kmh ESE 11.5 mph18.5 kmh 29.83 in1010.2 mb - 0.02 in0.5 mm 0.04 in1.0 mm
09:30 AM 31.0°F-0.6°C 30.2°F-1.0°C 97% 10.4 mph ESE16.7 kmh ESE 12.7 mph20.4 kmh 29.82 in1009.8 mb - 0.02 in0.5 mm 0.05 in1.3 mm
10:00 AM 31.3°F-0.4°C 30.3°F-0.9°C 96% 8.1 mph SE13.0 kmh SE 11.5 mph18.5 kmh 29.81 in1009.5 mb - 0.01 in0.3 mm 0.06 in1.5 mm
10:30 AM 31.7°F-0.2°C 30.7°F-0.7°C 96% 10.4 mph SE16.7 kmh SE 13.8 mph22.2 kmh 29.80 in1009.1 mb - 0.01 in0.3 mm 0.06 in1.5 mm
11:00 AM 32.0°F0.0°C 31.0°F-0.6°C 96% 11.5 mph SE18.5 kmh SE 18.4 mph29.6 kmh 29.78 in1008.5 mb - 0.01 in0.3 mm 0.07 in1.8 mm
11:30 AM 32.5°F0.3°C 31.7°F-0.2°C 97% 11.5 mph SE18.5 kmh SE 11.5 mph18.5 kmh 29.76 in1007.8 mb - 0.01 in0.3 mm 0.08 in2.0 mm
12:00 PM 33.2°F0.7°C 32.2°F0.1°C 96% 6.9 mph SE11.1 kmh SE 11.5 mph18.5 kmh 29.74 in1007.1 mb - 0.01 in0.3 mm 0.08 in2.0 mm
12:30 PM 34.2°F1.2°C 33.2°F0.7°C 96% 9.2 mph ESE14.8 kmh ESE 12.7 mph20.4 kmh 29.72 in1006.4 mb - 0.00 in0.0 mm 0.08 in2.0 mm
01:00 PM 33.5°F0.8°C 32.5°F0.3°C 96% 8.1 mph ESE13.0 kmh ESE 9.2 mph14.8 kmh 29.71 in1006.1 mb - 0.00 in0.0 mm 0.08 in2.0 mm
01:30 PM 33.5°F0.8°C 32.5°F0.3°C 96% 8.1 mph ESE13.0 kmh ESE 9.2 mph14.8 kmh 29.70 in1005.8 mb - 0.00 in0.0 mm 0.08 in2.0 mm
02:00 PM 34.6°F1.4°C 33.3°F0.7°C 95% 12.7 mph SE20.4 kmh SE 12.7 mph20.4 kmh 29.69 in1005.4 mb - 0.00 in0.0 mm 0.08 in2.0 mm
02:30 PM 34.4°F1.3°C 33.4°F0.8°C 96% 9.2 mph SE14.8 kmh SE 11.5 mph18.5 kmh 29.67 in1004.7 mb - 0.00 in0.0 mm 0.08 in2.0 mm
03:00 PM 34.8°F1.6°C 33.8°F1.0°C 96% 12.7 mph SE20.4 kmh SE 15.0 mph24.1 kmh 29.66 in1004.4 mb - 0.00 in0.0 mm 0.08 in2.0 mm
03:30 PM 34.5°F1.4°C 33.4°F0.8°C 96% 13.8 mph SE22.2 kmh SE 19.6 mph31.5 kmh 29.65 in1004.1 mb - 0.00 in0.0 mm 0.08 in2.0 mm
04:00 PM 34.5°F1.4°C 33.5°F0.8°C 96% 9.2 mph SE14.8 kmh SE 11.5 mph18.5 kmh 29.63 in1003.4 mb - 0.00 in0.0 mm 0.08 in2.0 mm
04:30 PM 34.8°F1.6°C 34.0°F1.1°C 97% 10.4 mph SE16.7 kmh SE 11.5 mph18.5 kmh 29.62 in1003.0 mb - 0.00 in0.0 mm 0.08 in2.0 mm
05:00 PM 35.2°F1.8°C 34.2°F1.2°C 96% 8.1 mph SE13.0 kmh SE 11.5 mph18.5 kmh 29.61 in1002.7 mb - 0.00 in0.0 mm 0.08 in2.0 mm
05:30 PM 35.5°F1.9°C 34.5°F1.4°C 96% 10.4 mph SE16.7 kmh SE 11.5 mph18.5 kmh 29.59 in1002.0 mb - 0.00 in0.0 mm 0.08 in2.0 mm
06:00 PM 35.3°F1.8°C 34.3°F1.3°C 96% 9.2 mph SE14.8 kmh SE 11.5 mph18.5 kmh 29.58 in1001.7 mb - 0.00 in0.0 mm 0.08 in2.0 mm
06:30 PM 35.3°F1.8°C 34.3°F1.3°C 96% 10.4 mph SE16.7 kmh SE 12.7 mph20.4 kmh 29.57 in1001.4 mb - 0.00 in0.0 mm 0.08 in2.0 mm
07:00 PM 35.2°F1.8°C 34.2°F1.2°C 96% 9.2 mph SE14.8 kmh SE 10.4 mph16.7 kmh 29.57 in1001.4 mb - 0.00 in0.0 mm 0.08 in2.0 mm
07:30 PM 35.3°F1.8°C 34.3°F1.3°C 96% 4.6 mph SE7.4 kmh SE 6.9 mph11.1 kmh 29.56 in1001.0 mb - 0.00 in0.0 mm 0.08 in2.0 mm
08:00 PM 35.6°F2.0°C 34.6°F1.4°C 96% 3.5 mph SE5.6 kmh SE 6.9 mph11.1 kmh 29.55 in1000.7 mb - 0.00 in0.0 mm 0.08 in2.0 mm
08:30 PM 35.4°F1.9°C 34.4°F1.3°C 96% 6.9 mph SE11.1 kmh SE 8.1 mph13.0 kmh 29.54 in1000.3 mb - 0.00 in0.0 mm 0.08 in2.0 mm
09:00 PM 35.3°F1.8°C 34.3°F1.3°C 96% 3.5 mph SE5.6 kmh SE 6.9 mph11.1 kmh 29.54 in1000.3 mb - 0.00 in0.0 mm 0.08 in2.0 mm
09:30 PM 35.7°F2.1°C 34.7°F1.5°C 96% 4.6 mph SE7.4 kmh SE 5.8 mph9.3 kmh 29.53 in1000.0 mb - 0.00 in0.0 mm 0.08 in2.0 mm
10:00 PM 35.9°F2.2°C 34.9°F1.6°C 96% 5.8 mph SE9.3 kmh SE 8.1 mph13.0 kmh 29.53 in1000.0 mb - 0.00 in0.0 mm 0.08 in2.0 mm
10:30 PM 36.0°F2.2°C 35.0°F1.7°C 96% 4.6 mph SE7.4 kmh SE 8.1 mph13.0 kmh 29.52 in999.7 mb - 0.00 in0.0 mm 0.08 in2.0 mm
11:00 PM 36.0°F2.2°C 34.7°F1.5°C 95% 5.8 mph S9.3 kmh S 8.1 mph13.0 kmh 29.52 in999.7 mb - 0.00 in0.0 mm 0.08 in2.0 mm
11:30 PM 36.2°F2.3°C 34.9°F1.6°C 95% 2.3 mph WSW3.7 kmh WSW 2.3 mph3.7 kmh 29.51 in999.3 mb - 0.00 in0.0 mm 0.08 in2.0 mm